createdAt,value
2022-09-09T00:02:05.529Z,15.80
2022-09-09T00:04:35.325Z,15.80
2022-09-09T00:07:08.377Z,15.70
2022-09-09T00:09:49.331Z,15.80
2022-09-09T00:12:23.057Z,15.70
2022-09-09T00:14:56.653Z,15.80
2022-09-09T00:17:38.332Z,15.80
2022-09-09T00:20:16.426Z,15.80
2022-09-09T00:22:52.179Z,15.70
2022-09-09T00:25:30.402Z,15.70
2022-09-09T00:27:58.559Z,15.70
2022-09-09T00:30:29.196Z,15.70
2022-09-09T00:33:02.625Z,15.70
2022-09-09T00:35:36.451Z,15.70
2022-09-09T00:38:14.717Z,15.80
2022-09-09T00:40:51.914Z,15.70
2022-09-09T00:43:32.139Z,15.70
2022-09-09T00:46:44.768Z,15.60
2022-09-09T00:49:23.025Z,15.50
2022-09-09T00:52:01.194Z,15.50
2022-09-09T00:54:38.829Z,15.50
2022-09-09T00:57:24.174Z,15.50
2022-09-09T00:59:54.967Z,15.50
2022-09-09T01:02:30.169Z,15.50
2022-09-09T01:05:06.686Z,15.40
2022-09-09T01:07:35.306Z,15.30
2022-09-09T01:10:10.977Z,15.20
2022-09-09T01:12:44.788Z,15.20
2022-09-09T01:15:26.631Z,15.10
2022-09-09T01:18:03.350Z,15.00
2022-09-09T01:20:42.390Z,14.90
2022-09-09T01:23:28.093Z,14.90
2022-09-09T01:26:26.915Z,14.90
2022-09-09T01:28:57.555Z,14.90
2022-09-09T01:31:41.894Z,14.90
2022-09-09T01:34:13.439Z,14.80
2022-09-09T01:36:46.640Z,14.90
2022-09-09T01:39:15.203Z,14.90
2022-09-09T01:41:46.269Z,14.80
2022-09-09T01:44:19.126Z,14.80
2022-09-09T01:46:47.784Z,14.70
2022-09-09T01:49:19.489Z,14.70
2022-09-09T01:51:51.953Z,14.70
2022-09-09T01:54:25.799Z,14.70
2022-09-09T01:57:08.304Z,14.80
2022-09-09T01:59:55.568Z,14.80
2022-09-09T02:02:30.085Z,14.80
2022-09-09T02:05:25.361Z,14.80
2022-09-09T02:08:01.538Z,14.60
2022-09-09T02:10:52.675Z,14.60
2022-09-09T02:13:37.058Z,14.60
2022-09-09T02:16:10.459Z,14.60
2022-09-09T02:18:45.128Z,14.70
2022-09-09T02:21:15.160Z,14.60
2022-09-09T02:23:44.598Z,14.70
2022-09-09T02:26:20.658Z,14.80
2022-09-09T02:28:56.141Z,15.00
2022-09-09T02:31:26.413Z,14.90
2022-09-09T02:34:04.159Z,14.90
2022-09-09T02:36:36.122Z,14.90
2022-09-09T02:39:07.236Z,14.90
2022-09-09T02:41:39.688Z,14.90
2022-09-09T02:44:13.147Z,15.00
2022-09-09T02:47:06.032Z,15.10
2022-09-09T02:49:45.643Z,15.10
2022-09-09T02:52:17.525Z,15.30
2022-09-09T02:54:46.673Z,15.30
2022-09-09T02:57:21.519Z,15.30
2022-09-09T02:59:53.754Z,15.40
2022-09-09T03:02:21.990Z,15.40
2022-09-09T03:04:55.834Z,15.40
2022-09-09T03:07:24.363Z,15.30
2022-09-09T03:09:56.000Z,15.30
2022-09-09T03:12:27.224Z,15.30
2022-09-09T03:14:56.705Z,15.30
2022-09-09T03:17:25.909Z,15.40
2022-09-09T03:19:57.136Z,15.40
2022-09-09T03:22:26.349Z,15.50
2022-09-09T03:24:54.826Z,15.20
2022-09-09T03:27:24.125Z,15.00
2022-09-09T03:29:53.121Z,15.10
2022-09-09T03:32:27.494Z,15.30
2022-09-09T03:34:58.338Z,15.50
2022-09-09T03:37:27.203Z,15.50
2022-09-09T03:39:56.497Z,15.60
2022-09-09T03:42:25.410Z,15.30
2022-09-09T03:44:58.769Z,15.00
2022-09-09T03:47:29.736Z,15.00
2022-09-09T03:50:10.427Z,15.00
2022-09-09T03:52:43.360Z,15.10
2022-09-09T03:55:17.955Z,15.20
2022-09-09T03:57:47.122Z,15.30
2022-09-09T04:00:15.788Z,15.30
2022-09-09T04:02:55.490Z,15.40
2022-09-09T04:05:23.631Z,15.40
2022-09-09T04:07:52.333Z,15.20
2022-09-09T04:10:22.071Z,15.10
2022-09-09T04:12:50.468Z,15.10
2022-09-09T04:15:19.759Z,15.10
2022-09-09T04:17:48.844Z,15.20
2022-09-09T04:20:18.531Z,15.20
2022-09-09T04:22:46.945Z,15.20
2022-09-09T04:25:15.861Z,15.30
2022-09-09T04:27:43.976Z,15.30
2022-09-09T04:30:15.144Z,15.30
2022-09-09T04:32:45.721Z,15.30
2022-09-09T04:35:13.945Z,15.30
2022-09-09T04:37:44.105Z,15.30
2022-09-09T04:42:44.997Z,15.10
2022-09-09T04:45:15.931Z,15.00
2022-09-09T04:47:44.244Z,15.10
2022-09-09T04:50:13.175Z,15.20
2022-09-09T04:52:42.143Z,15.10
2022-09-09T04:55:12.287Z,15.10
2022-09-09T04:57:40.712Z,15.20
2022-09-09T05:00:11.080Z,15.20
2022-09-09T05:02:43.519Z,15.30
2022-09-09T05:05:12.200Z,15.50
2022-09-09T05:07:41.118Z,15.40
2022-09-09T05:10:11.688Z,15.30
2022-09-09T05:12:39.967Z,15.40
2022-09-09T05:15:09.371Z,15.40
2022-09-09T05:17:37.646Z,15.40
2022-09-09T05:20:09.929Z,15.40
2022-09-09T05:22:39.520Z,15.30
2022-09-09T05:25:09.481Z,15.40
2022-09-09T05:27:39.567Z,15.40
2022-09-09T05:30:09.298Z,15.30
2022-09-09T05:32:37.719Z,15.30
2022-09-09T05:35:06.510Z,15.50
2022-09-09T05:37:35.970Z,15.20
2022-09-09T05:40:05.240Z,15.20
2022-09-09T05:42:33.850Z,15.30
2022-09-09T05:45:03.986Z,15.40
2022-09-09T05:47:32.419Z,15.40
2022-09-09T05:50:02.797Z,15.60
2022-09-09T05:52:30.968Z,15.70
2022-09-09T05:55:00.719Z,15.90
2022-09-09T05:57:28.945Z,15.90
2022-09-09T05:59:57.550Z,15.90
2022-09-09T06:02:28.014Z,15.80
2022-09-09T06:05:00.512Z,15.80
2022-09-09T06:07:30.170Z,15.90
2022-09-09T06:10:00.193Z,16.30
2022-09-09T06:12:28.699Z,16.70
2022-09-09T06:14:57.660Z,16.80
2022-09-09T06:17:28.800Z,16.80
2022-09-09T06:19:57.330Z,17.00
2022-09-09T06:22:25.550Z,16.90
2022-09-09T06:24:54.879Z,17.00
2022-09-09T06:27:23.916Z,17.10
2022-09-09T06:29:57.188Z,17.60
